Time;durP1;ratioP1;P1;durP2;ratioP2;P2;SDS_P1;SDS_P2;PMS_P1;PMS_P2;Temp;Humidity;BMP_temperature;BMP_pressure;BME280_temperature;BME280_humidity;BME280_pressure;Samples;Min_cycle;Max_cycle;Signal;HPM_P1;HPM_P2
2023/09/24 00:02:06;;;;;;;18.02;8.50;;;;;;;14.52;61.04;101192.77;1700345;84;21377;-58
2023/09/24 00:05:13;;;;;;;16.85;7.97;;;;;;;14.49;61.15;101190.34;1700404;84;21385;-58
2023/09/24 00:08:18;;;;;;;14.40;8.68;;;;;;;14.48;61.33;101192.77;1700295;84;21416;-59
2023/09/24 00:11:25;;;;;;;21.50;9.10;;;;;;;14.48;61.48;101183.13;1700305;84;21885;-57
2023/09/24 00:14:33;;;;;;;14.33;8.48;;;;;;;14.48;61.64;101192.77;1700436;83;21349;-58
2023/09/24 00:17:39;;;;;;;14.55;9.30;;;;;;;14.47;61.67;101193.82;1700415;84;21361;-58
2023/09/24 00:20:46;;;;;;;15.23;8.35;;;;;;;14.47;61.71;101199.84;1700794;83;21375;-58
2023/09/24 00:23:54;;;;;;;14.58;8.93;;;;;;;14.44;61.72;101198.32;1700341;84;21348;-59
2023/09/24 00:27:01;;;;;;;11.25;7.90;;;;;;;14.41;61.80;101201.41;1700204;83;21413;-58
2023/09/24 00:30:09;;;;;;;15.32;9.13;;;;;;;14.40;61.86;101201.59;1700424;84;21408;-59
2023/09/24 00:33:15;;;;;;;12.95;8.70;;;;;;;14.36;61.78;101209.89;1700260;84;21368;-58
2023/09/24 00:36:22;;;;;;;15.35;8.20;;;;;;;14.32;61.77;101206.63;1700464;84;21408;-59
2023/09/24 00:39:29;;;;;;;17.23;9.23;;;;;;;14.27;61.85;101199.96;1700848;84;21866;-59
2023/09/24 00:42:36;;;;;;;17.40;9.08;;;;;;;14.24;61.92;101194.27;1684757;82;21423;-59
2023/09/24 00:45:44;;;;;;;13.72;8.50;;;;;;;14.21;61.94;101208.38;1700935;84;21404;-58
2023/09/24 00:48:49;;;;;;;17.67;8.93;;;;;;;14.17;61.97;101207.53;1700558;84;21368;-58
2023/09/24 00:51:55;;;;;;;16.62;8.80;;;;;;;14.15;62.09;101205.47;1700389;84;21474;-58
2023/09/24 00:55:03;;;;;;;13.05;8.60;;;;;;;14.13;62.21;101203.44;1700591;84;21352;-57
2023/09/24 00:58:10;;;;;;;14.30;8.88;;;;;;;14.12;62.31;101205.83;1684268;84;21368;-58
2023/09/24 01:01:17;;;;;;;14.53;9.10;;;;;;;14.09;62.40;101208.44;1700703;83;21361;-58
2023/09/24 01:04:24;;;;;;;17.73;9.13;;;;;;;14.08;62.52;101216.87;1700938;84;21341;-57
2023/09/24 01:07:31;;;;;;;16.25;9.08;;;;;;;14.08;62.57;101212.75;1700455;84;21365;-58
2023/09/24 01:10:38;;;;;;;15.90;9.43;;;;;;;14.05;62.63;101219.45;1700376;84;21337;-57
2023/09/24 01:13:49;;;;;;;18.60;9.38;;;;;;;14.04;62.65;101212.75;1700675;83;21349;-58
2023/09/24 01:16:57;;;;;;;20.77;10.63;;;;;;;14.02;62.74;101211.55;1700236;83;21408;-59
2023/09/24 01:20:05;;;;;;;15.18;9.80;;;;;;;14.03;62.95;101217.42;1700370;84;21207;-58
2023/09/24 01:23:11;;;;;;;17.80;10.03;;;;;;;14.07;63.08;101220.14;1700497;84;21843;-59
2023/09/24 01:26:18;;;;;;;13.55;10.10;;;;;;;14.12;63.25;101214.09;1700624;84;21356;-58
2023/09/24 01:29:26;;;;;;;18.07;9.38;;;;;;;14.15;63.35;101209.61;1682513;84;21373;-58
2023/09/24 01:32:32;;;;;;;15.25;9.38;;;;;;;14.15;63.34;101208.23;1701210;84;21934;-58
2023/09/24 01:35:41;;;;;;;20.02;10.68;;;;;;;14.15;63.37;101206.85;1700652;83;21380;-57
2023/09/24 01:38:47;;;;;;;18.12;9.40;;;;;;;14.14;63.33;101212.90;1700378;84;21381;-59
2023/09/24 01:41:54;;;;;;;18.92;10.05;;;;;;;14.12;63.35;101212.72;1702097;81;21443;-57
2023/09/24 01:45:01;;;;;;;16.52;9.48;;;;;;;14.11;63.37;101218.73;1700570;83;21349;-58
2023/09/24 01:48:09;;;;;;;18.17;10.55;;;;;;;14.11;63.42;101222.02;1700502;83;21364;-57
2023/09/24 01:51:16;;;;;;;16.02;9.58;;;;;;;14.08;63.43;101219.63;1700351;84;21700;-57
2023/09/24 01:54:24;;;;;;;17.23;10.78;;;;;;;14.05;63.40;101223.58;1700383;84;21448;-58
2023/09/24 01:57:32;;;;;;;15.05;9.93;;;;;;;13.99;63.33;101228.94;1700628;83;21392;-57
2023/09/24 02:00:39;;;;;;;16.62;10.38;;;;;;;13.94;63.33;101232.77;1700325;84;21357;-58
2023/09/24 02:03:46;;;;;;;13.50;10.15;;;;;;;13.87;63.32;101232.61;1700367;83;21360;-58
2023/09/24 02:06:52;;;;;;;16.57;10.23;;;;;;;13.84;63.41;101229.34;1700367;84;21910;-59
2023/09/24 02:09:59;;;;;;;17.55;9.20;;;;;;;13.81;63.54;101226.41;1700803;83;21471;-58
2023/09/24 02:13:06;;;;;;;14.18;9.33;;;;;;;13.82;63.70;101220.39;1700415;84;21413;-58
2023/09/24 02:16:13;;;;;;;12.05;8.58;;;;;;;13.83;63.86;101220.72;1701419;84;21376;-57
2023/09/24 02:19:21;;;;;;;16.70;9.75;;;;;;;13.85;64.02;101222.79;1700346;84;21360;-58
2023/09/24 02:22:28;;;;;;;14.98;8.83;;;;;;;13.87;64.12;101222.11;1702097;83;21408;-58
2023/09/24 02:25:39;;;;;;;16.27;9.98;;;;;;;13.88;64.20;101223.30;1700430;83;21444;-58
2023/09/24 02:28:45;;;;;;;14.45;9.78;;;;;;;13.88;64.25;101221.06;1700747;84;21385;-57
2023/09/24 02:31:52;;;;;;;14.07;9.20;;;;;;;13.89;64.26;101226.38;1700548;84;21881;-58
2023/09/24 02:34:57;;;;;;;13.90;9.28;;;;;;;13.90;64.30;101225.88;1700894;84;21877;-58
2023/09/24 02:38:08;;;;;;;15.10;8.75;;;;;;;13.89;64.32;101217.30;1700336;84;21862;-58
2023/09/24 02:41:11;;;;;;;14.95;10.05;;;;;;;13.88;64.36;101216.93;1700809;84;21929;-58
2023/09/24 02:44:17;;;;;;;16.37;10.20;;;;;;;13.87;64.37;101211.96;1704730;81;21423;-57
2023/09/24 02:47:24;;;;;;;15.08;9.13;;;;;;;13.87;64.44;101226.23;1740366;82;21842;-58
2023/09/24 02:50:31;;;;;;;13.25;9.18;;;;;;;13.84;64.42;101221.95;1740345;82;21396;-57
2023/09/24 02:53:38;;;;;;;20.37;10.45;;;;;;;13.81;64.36;101220.06;1740363;82;21219;-58
2023/09/24 02:56:45;;;;;;;13.22;9.40;;;;;;;13.78;64.33;101222.63;1740386;81;21281;-57
2023/09/24 02:59:51;;;;;;;16.40;10.10;;;;;;;13.74;64.31;101217.66;1740342;82;21349;-57
2023/09/24 03:02:58;;;;;;;14.03;9.88;;;;;;;13.68;64.26;101223.87;1740376;82;21353;-57
2023/09/24 03:06:09;;;;;;;17.65;10.32;;;;;;;13.61;64.21;101221.47;1740329;81;21925;-57
2023/09/24 03:09:15;;;;;;;18.48;9.85;;;;;;;13.55;64.27;101221.66;1740295;81;21254;-58
2023/09/24 03:12:21;;;;;;;17.62;10.82;;;;;;;13.52;64.37;101225.61;1740216;82;21723;-58
2023/09/24 03:15:28;;;;;;;15.28;9.30;;;;;;;13.49;64.49;101227.33;1710673;82;21382;-59
2023/09/24 03:18:35;;;;;;;14.98;9.68;;;;;;;13.48;64.58;101226.13;1709332;84;21450;-58
2023/09/24 03:21:41;;;;;;;11.70;8.55;;;;;;;13.49;64.73;101223.75;1709344;84;21343;-58
2023/09/24 03:24:47;;;;;;;14.40;9.58;;;;;;;13.48;64.82;101221.50;1709415;84;21914;-58
2023/09/24 03:27:57;;;;;;;16.35;9.75;;;;;;;13.50;64.93;101218.06;1709396;84;21339;-58
2023/09/24 03:31:04;;;;;;;17.67;9.23;;;;;;;13.51;64.96;101225.78;1709256;84;21212;-57
2023/09/24 03:34:10;;;;;;;15.85;8.95;;;;;;;13.52;65.09;101218.73;1709413;83;21662;-58
2023/09/24 03:37:16;;;;;;;12.35;8.68;;;;;;;13.54;65.16;101221.34;1709243;84;22374;-57
2023/09/24 03:40:27;;;;;;;26.07;9.50;;;;;;;13.57;65.27;101220.98;1709356;84;21405;-58
2023/09/24 03:43:34;;;;;;;17.50;9.28;;;;;;;13.61;65.34;101227.84;1709334;84;21389;-57
2023/09/24 03:46:40;;;;;;;20.70;9.35;;;;;;;13.64;65.37;101230.78;1696196;84;21900;-57
2023/09/24 03:49:46;;;;;;;12.73;8.10;;;;;;;13.68;65.41;101234.88;1677766;85;21428;-58
2023/09/24 03:53:00;;;;;;;14.30;8.40;;;;;;;13.69;65.38;101231.95;1709457;84;21335;-59
2023/09/24 03:56:07;;;;;;;;;;;;;;;13.70;65.36;101239.70;1716685;83;21214;-59
2023/09/24 03:59:15;;;;;;;17.75;7.92;;;;;;;13.70;65.35;101243.29;1713968;83;20203;-58
2023/09/24 04:02:23;;;;;;;14.23;8.78;;;;;;;13.70;65.42;101243.29;1706537;84;21400;-59
2023/09/24 04:05:31;;;;;;;15.68;8.68;;;;;;;13.72;65.43;101248.62;1727857;81;21243;-58
2023/09/24 04:08:38;;;;;;;13.00;8.90;;;;;;;13.73;65.37;101249.81;1732510;82;21368;-57
2023/09/24 04:11:44;;;;;;;16.67;9.28;;;;;;;13.73;65.36;101258.07;1732565;81;21312;-57
2023/09/24 04:14:51;;;;;;;15.80;8.38;;;;;;;13.75;65.36;101252.42;1732624;83;21333;-57
2023/09/24 04:17:57;;;;;;;13.98;8.75;;;;;;;13.77;65.38;101254.45;1732575;83;21387;-59
2023/09/24 04:21:04;;;;;;;14.50;8.65;;;;;;;13.79;65.43;101252.41;1732512;81;21371;-58
2023/09/24 04:24:11;;;;;;;15.98;9.03;;;;;;;13.83;65.46;101259.25;1732484;83;21364;-58
2023/09/24 04:27:18;;;;;;;14.23;9.38;;;;;;;13.87;65.52;101256.00;1732517;83;21379;-58
2023/09/24 04:30:24;;;;;;;15.63;9.33;;;;;;;13.93;65.54;101261.30;1732558;81;21356;-55
2023/09/24 04:33:30;;;;;;;15.90;9.33;;;;;;;13.98;65.51;101266.64;1731892;81;21756;-57
2023/09/24 04:36:37;;;;;;;16.97;9.05;;;;;;;14.03;65.54;101275.23;1691035;85;21430;-57
2023/09/24 04:39:48;;;;;;;13.28;8.05;;;;;;;14.09;65.56;101276.41;1729631;82;21230;-57
2023/09/24 04:42:52;;;;;;;15.00;9.15;;;;;;;14.14;65.55;101272.61;1730220;83;21770;-56
2023/09/24 04:45:58;;;;;;;16.82;8.53;;;;;;;14.19;65.58;101273.78;1730131;83;21758;-57
2023/09/24 04:49:04;;;;;;;21.15;9.25;;;;;;;14.26;65.62;101276.72;1729639;83;21747;-57
2023/09/24 04:52:10;;;;;;;14.20;9.15;;;;;;;14.33;65.67;101280.49;1729602;83;21265;-57
2023/09/24 04:55:16;;;;;;;15.68;9.43;;;;;;;14.40;65.70;101286.99;1733817;81;21234;-57
2023/09/24 04:58:23;;;;;;;20.08;9.00;;;;;;;14.47;65.72;101276.98;1729780;83;21269;-58
2023/09/24 05:01:28;;;;;;;18.55;9.45;;;;;;;14.57;65.71;101283.15;1729750;83;21809;-57
2023/09/24 05:04:35;;;;;;;13.58;8.58;;;;;;;14.65;65.72;101285.32;1729810;82;21751;-57
2023/09/24 05:07:42;;;;;;;14.83;8.28;;;;;;;14.74;65.75;101284.77;1732166;82;21390;-56
2023/09/24 05:10:49;;;;;;;16.93;8.85;;;;;;;14.84;65.76;101286.80;1742192;81;21343;-57
2023/09/24 05:13:55;;;;;;;15.05;8.85;;;;;;;14.94;65.78;101293.78;1683830;84;21239;-57
2023/09/24 05:17:00;;;;;;;14.25;8.48;;;;;;;15.05;65.77;101293.04;1697679;83;21718;-57
2023/09/24 05:20:05;;;;;;;16.95;7.85;;;;;;;15.14;65.78;101295.56;1702136;82;21247;-56
2023/09/24 05:23:11;;;;;;;12.25;7.72;;;;;;;15.23;65.75;101301.34;1682918;85;21394;-57
2023/09/24 05:26:22;;;;;;;12.03;7.17;;;;;;;15.34;65.71;101308.33;1698194;84;21390;-56
2023/09/24 05:29:30;;;;;;;18.02;9.10;;;;;;;15.42;65.68;101300.89;1699184;84;21216;-56
2023/09/24 05:32:37;;;;;;;18.25;8.00;;;;;;;15.52;65.65;101311.67;1698148;84;21287;-58
2023/09/24 05:35:45;;;;;;;14.75;8.18;;;;;;;15.61;65.62;101310.04;1698029;84;21220;-57
2023/09/24 05:38:51;;;;;;;14.55;7.85;;;;;;;15.71;65.57;101309.78;1703173;83;21228;-56
2023/09/24 05:41:57;;;;;;;17.95;7.60;;;;;;;15.78;65.49;101307.45;1726642;82;21876;-57
2023/09/24 05:45:03;;;;;;;12.90;7.55;;;;;;;15.88;65.45;101316.34;1711667;82;21220;-57
2023/09/24 05:50:29;;;;;;;14.63;8.18;;;;;;;16.08;65.32;101309.22;1862308;76;28648;-56
2023/09/24 05:53:36;;;;;;;16.50;7.80;;;;;;;16.11;65.30;101310.22;1802587;79;21209;-56
2023/09/24 05:57:04;;;;;;;14.15;8.15;;;;;;;16.29;65.22;101314.87;1839528;76;28474;-57
2023/09/24 06:00:12;;;;;;;15.72;7.87;;;;;;;16.30;65.15;101315.19;1801516;78;21236;-56
2023/09/24 06:05:26;;;;;;;13.70;8.25;;;;;;;16.55;65.04;101304.75;1864548;76;28114;-57
2023/09/24 06:09:38;;;;;;;17.70;8.55;;;;;;;16.69;64.90;101308.02;1877392;76;27931;-56
2023/09/24 06:15:30;;;;;;;16.95;8.53;;;;;;;16.87;64.72;101307.61;1849166;76;28075;-57
2023/09/24 06:18:39;;;;;;;17.95;8.85;;;;;;;16.89;64.65;101306.34;1773000;81;21200;-57
2023/09/24 06:21:45;;;;;;;11.88;8.28;;;;;;;16.96;64.57;101307.30;1772732;79;21185;-57
2023/09/24 06:24:51;;;;;;;15.55;7.80;;;;;;;17.07;64.54;101311.45;1770913;80;21382;-56
2023/09/24 06:27:58;;;;;;;16.40;8.23;;;;;;;17.15;64.47;101314.97;1770743;79;21235;-56
2023/09/24 06:31:10;;;;;;;15.48;7.00;;;;;;;17.25;64.39;101317.42;1770862;79;21884;-57
2023/09/24 06:34:17;;;;;;;12.25;7.22;;;;;;;17.34;64.33;101321.25;1771641;81;21718;-57
2023/09/24 06:37:23;;;;;;;14.03;7.60;;;;;;;17.46;64.26;101329.91;1773676;80;21327;-57
2023/09/24 06:40:31;;;;;;;14.35;7.58;;;;;;;17.55;64.17;101324.03;1763121;79;21316;-57
2023/09/24 06:46:46;;;;;;;17.23;7.60;;;;;;;17.76;63.95;101315.72;1831879;76;28068;-55
2023/09/24 06:53:33;;;;;;;16.90;8.18;;;;;;;18.02;63.78;101319.77;1871221;76;28033;-56
2023/09/24 06:58:00;;;;;;;12.80;7.47;;;;;;;18.14;63.65;101309.30;1877801;76;28171;-57
2023/09/24 07:03:51;;;;;;;11.93;6.97;;;;;;;18.32;63.50;101308.78;1846324;76;28076;-56
2023/09/24 07:08:25;;;;;;;14.45;8.15;;;;;;;18.47;63.37;101315.95;1845081;76;28071;-56
2023/09/24 07:11:37;;;;;;;12.70;7.55;;;;;;;18.49;63.28;101318.55;1770320;79;21323;-56
2023/09/24 07:22:27;;;;;;;17.87;8.30;;;;;;;18.93;62.96;101311.48;1831642;76;28230;-56
2023/09/24 07:25:33;;;;;;;14.20;7.60;;;;;;;18.96;62.86;101319.39;1773095;79;21736;-57
2023/09/24 07:32:39;;;;;;;11.85;6.72;;;;;;;19.22;62.54;101308.91;1874408;76;28598;-57
2023/09/24 07:35:46;;;;;;;15.90;7.08;;;;;;;19.24;62.46;101311.83;1749617;81;21251;-57
2023/09/24 07:38:54;;;;;;;13.62;6.83;;;;;;;19.34;62.37;101298.41;1797996;79;21344;-57
2023/09/24 07:42:00;;;;;;;17.10;7.35;;;;;;;19.46;62.25;101301.95;1799003;79;21362;-56
2023/09/24 07:45:40;;;;;;;12.33;6.83;;;;;;;19.64;62.07;101299.42;1857748;76;28160;-57
2023/09/24 07:48:48;;;;;;;12.23;7.08;;;;;;;19.69;62.05;101302.42;1800361;79;21342;-58
2023/09/24 07:51:56;;;;;;;15.03;6.45;;;;;;;19.87;61.89;101304.05;1828325;76;28634;-57
2023/09/24 07:55:02;;;;;;;10.82;6.72;;;;;;;19.91;61.81;101299.23;1762824;79;21284;-57
2023/09/24 07:58:07;;;;;;;14.98;6.53;;;;;;;20.04;61.72;101308.09;1769803;80;21177;-56
2023/09/24 08:01:18;;;;;;;13.70;7.55;;;;;;;20.13;61.56;101307.66;1770901;79;21421;-56
2023/09/24 08:04:34;;;;;;;16.52;7.87;;;;;;;20.30;61.34;101303.38;1870216;76;28003;-56
2023/09/24 08:07:41;;;;;;;16.05;6.60;;;;;;;20.33;61.20;101306.25;1794661;79;21927;-56
2023/09/24 08:10:48;;;;;;;19.80;6.50;;;;;;;20.38;61.00;101300.89;1785302;80;21207;-57
2023/09/24 08:15:24;;;;;;;19.55;6.92;;;;;;;20.59;60.75;101296.46;1863125;76;28093;-57
2023/09/24 08:18:33;;;;;;;13.25;6.80;;;;;;;20.60;60.64;101292.06;1783369;79;21383;-57
2023/09/24 08:21:40;;;;;;;14.40;6.25;;;;;;;20.68;60.49;101286.27;1797838;79;21547;-55
2023/09/24 08:24:46;;;;;;;14.45;6.60;;;;;;;20.77;60.34;101289.66;1800943;79;21373;-56
2023/09/24 08:27:53;;;;;;;15.45;6.53;;;;;;;20.85;60.17;101286.64;1781726;79;21347;-57
2023/09/24 08:31:02;;;;;;;17.32;5.95;;;;;;;20.92;59.98;101290.23;1804871;78;21188;-56
2023/09/24 08:34:02;;;;;;;10.43;6.55;;;;;;;20.99;59.80;101291.63;1762790;79;21860;-56
2023/09/24 08:37:09;;;;;;;12.30;6.87;;;;;;;21.09;59.67;101301.76;1783530;78;21346;-54
2023/09/24 08:40:17;;;;;;;15.48;6.22;;;;;;;21.15;59.49;101294.77;1772956;79;21686;-56
2023/09/24 10:38:06;;;;;;;14.60;4.80;;;;;;;24.72;54.08;101252.66;1828544;78;27745;-61
2023/09/24 10:41:14;;;;;;;18.75;5.22;;;;;;;24.82;53.90;101244.48;1794580;79;21775;-59
2023/09/24 10:44:35;;;;;;;14.55;5.05;;;;;;;25.02;53.79;101243.48;1783980;80;21344;-60
2023/09/24 10:47:43;;;;;;;18.25;5.25;;;;;;;25.21;53.60;101246.97;1793188;79;21340;-59
2023/09/24 10:50:51;;;;;;;18.35;5.42;;;;;;;25.34;53.31;101247.24;1778617;79;21396;-58
2023/09/24 10:53:57;;;;;;;16.80;5.37;;;;;;;25.47;53.20;101238.48;1771281;80;21377;-62
2023/09/24 10:57:04;;;;;;;20.48;5.62;;;;;;;25.62;53.11;101244.39;1778614;80;21376;-60
2023/09/24 11:00:13;;;;;;;16.15;4.78;;;;;;;25.73;52.86;101237.84;1778231;79;21373;-59
2023/09/24 11:03:22;;;;;;;14.00;4.80;;;;;;;25.82;52.65;101240.52;1771655;80;21191;-57
2023/09/24 11:06:30;;;;;;;16.52;5.12;;;;;;;25.92;52.49;101230.88;1778165;80;21194;-57
2023/09/24 11:09:36;;;;;;;19.35;4.35;;;;;;;26.07;52.38;101226.92;1773094;79;21411;-58
2023/09/24 11:12:43;;;;;;;14.83;4.47;;;;;;;26.19;52.12;101235.58;1791369;79;21229;-60
2023/09/24 11:15:48;;;;;;;14.68;4.30;;;;;;;26.32;51.97;101243.61;1792205;79;21253;-59
2023/09/24 11:18:56;;;;;;;12.03;4.85;;;;;;;26.46;51.84;101244.11;1793823;79;21349;-59
2023/09/24 11:22:02;;;;;;;13.30;5.05;;;;;;;26.61;51.67;101242.07;1772287;80;21375;-58
2023/09/24 11:25:19;;;;;;;19.23;4.80;;;;;;;26.73;51.44;101240.86;1793725;80;21337;-58
2023/09/24 11:28:25;;;;;;;18.77;4.58;;;;;;;26.84;51.13;101241.83;1773912;80;21336;-58
2023/09/24 11:31:32;;;;;;;17.42;4.70;;;;;;;26.92;50.86;101236.61;1771456;80;21356;-61
2023/09/24 11:34:39;;;;;;;15.83;4.65;;;;;;;27.02;50.62;101224.06;1792881;79;21726;-62
2023/09/24 11:38:05;;;;;;;19.57;5.25;;;;;;;27.10;50.37;101226.98;1786238;78;21387;-59
2023/09/24 11:41:20;;;;;;;16.48;4.72;;;;;;;27.18;50.17;101218.91;1791678;80;21396;-60
2023/09/24 11:44:25;;;;;;;17.90;4.72;;;;;;;27.27;49.88;101228.62;1792287;80;21325;-60
2023/09/24 11:47:30;;;;;;;21.48;4.87;;;;;;;27.35;49.69;101229.52;1789877;79;21378;-59
2023/09/24 11:50:36;;;;;;;18.12;4.28;;;;;;;27.42;49.43;101225.09;1791767;79;21195;-58
2023/09/24 11:53:42;;;;;;;23.45;5.22;;;;;;;27.50;49.21;101221.80;1792118;80;21337;-64
2023/09/24 11:56:50;;;;;;;14.13;4.05;;;;;;;27.56;49.01;101210.33;1791982;80;21694;-59
2023/09/24 11:59:55;;;;;;;11.93;4.47;;;;;;;27.63;48.79;101215.73;1792215;80;21368;-60
2023/09/24 12:03:05;;;;;;;14.78;4.28;;;;;;;27.70;48.59;101221.42;1791625;80;21202;-60
2023/09/24 12:06:13;;;;;;;14.28;4.37;;;;;;;27.75;48.31;101218.66;1760611;81;21213;-61
2023/09/24 12:09:12;;;;;;;16.90;4.33;;;;;;;27.80;48.08;101213.63;1761033;80;21265;-59
2023/09/24 12:12:07;;;;;;;16.57;5.45;;;;;;;27.85;47.86;101213.13;1760857;81;21229;-60
2023/09/24 12:14:52;;;;;;;16.00;4.80;;;;;;;27.88;47.63;101218.80;1760803;80;21233;-62
2023/09/24 12:17:48;;;;;;;16.05;4.37;;;;;;;27.90;47.46;101219.93;1760835;81;21194;-63
2023/09/24 12:20:56;;;;;;;24.37;4.62;;;;;;;27.90;47.24;101212.34;1760413;81;21217;-60
2023/09/24 12:24:03;;;;;;;24.27;11.28;;;;;;;27.92;47.04;101209.25;1759953;81;21544;-60
2023/09/24 12:27:09;;;;;;;26.00;8.35;;;;;;;27.92;46.85;101211.52;1760368;80;21269;-60
2023/09/24 12:30:15;;;;;;;37.23;8.55;;;;;;;27.90;46.60;101212.89;1760496;81;21305;-57
2023/09/24 12:33:20;;;;;;;20.70;6.12;;;;;;;27.88;46.29;101210.89;1760401;81;21208;-61
2023/09/24 12:36:29;;;;;;;14.80;5.72;;;;;;;27.84;46.09;101210.00;1780639;79;21900;-60
2023/09/24 12:39:33;;;;;;;17.92;4.67;;;;;;;27.81;45.91;101208.30;1789092;79;21198;-58
2023/09/24 12:42:39;;;;;;;15.53;4.53;;;;;;;27.75;45.65;101205.13;1773705;80;21528;-59
2023/09/24 12:45:44;;;;;;;20.15;4.67;;;;;;;27.68;45.48;101205.94;1791381;80;21383;-59
2023/09/24 12:48:46;;;;;;;22.37;4.58;;;;;;;27.64;45.35;101209.84;1792024;80;21210;-59
2023/09/24 12:51:51;;;;;;;18.57;5.17;;;;;;;27.59;45.14;101211.19;1791735;80;21200;-59
2023/09/24 12:55:01;;;;;;;16.07;4.08;;;;;;;27.53;44.97;101210.86;1791249;79;21238;-59
2023/09/24 12:58:05;;;;;;;21.48;4.67;;;;;;;27.47;44.82;101213.89;1791076;80;21349;-62
2023/09/24 13:01:10;;;;;;;16.85;4.45;;;;;;;27.43;44.66;101212.16;1691237;83;21271;-59
2023/09/24 13:04:17;;;;;;;20.77;4.47;;;;;;;27.36;44.46;101217.17;1706019;83;21213;-61
2023/09/24 13:07:23;;;;;;;14.87;4.40;;;;;;;27.32;44.34;101217.39;1708675;83;21969;-59
2023/09/24 13:10:29;;;;;;;19.98;5.08;;;;;;;27.29;44.18;101212.89;1707416;82;21366;-62
2023/09/24 13:13:35;;;;;;;18.65;4.15;;;;;;;27.23;44.07;101216.16;1711471;81;21827;-61
2023/09/24 13:16:42;;;;;;;15.28;4.70;;;;;;;27.18;43.86;101211.05;1746860;81;21291;-59
2023/09/24 13:19:49;;;;;;;21.30;5.00;;;;;;;27.10;43.69;101206.73;1762316;80;21182;-60
2023/09/24 13:22:55;;;;;;;22.80;4.97;;;;;;;27.05;43.54;101205.26;1767897;78;21532;-59
2023/09/24 13:26:02;;;;;;;21.77;4.65;;;;;;;26.97;43.38;101207.16;1783376;78;21209;-60
2023/09/24 13:29:08;;;;;;;16.67;4.53;;;;;;;26.94;43.31;101211.88;1696499;84;21295;-61
2023/09/24 13:32:18;;;;;;;17.87;4.85;;;;;;;26.89;43.21;101207.63;1731868;83;21215;-63
2023/09/24 13:35:24;;;;;;;16.87;4.85;;;;;;;26.85;43.11;101209.25;1792539;80;21356;-61
2023/09/24 13:38:30;;;;;;;14.15;4.00;;;;;;;26.79;42.97;101206.09;1792890;80;21726;-59
2023/09/24 13:41:37;;;;;;;13.95;3.90;;;;;;;26.75;42.86;101208.28;1763780;80;21358;-60
2023/09/24 13:44:41;;;;;;;17.75;4.17;;;;;;;26.70;42.79;101200.64;1747187;81;21361;-60
2023/09/24 13:47:47;;;;;;;18.55;4.25;;;;;;;26.68;42.71;101203.41;1741855;81;21228;-61
2023/09/24 13:50:56;;;;;;;19.10;5.90;;;;;;;26.64;42.59;101202.21;1767010;81;21778;-60
2023/09/24 13:54:03;;;;;;;17.67;5.47;;;;;;;26.60;42.52;101199.61;1737443;81;21231;-60
2023/09/24 13:57:08;;;;;;;13.78;4.50;;;;;;;26.56;42.45;101200.69;1737662;82;21206;-60
2023/09/24 14:00:14;;;;;;;15.38;5.15;;;;;;;26.52;42.38;101202.87;1738213;82;21195;-61
2023/09/24 14:03:19;;;;;;;23.73;5.17;;;;;;;26.48;42.35;101195.55;1738118;81;21308;-60
2023/09/24 14:06:26;;;;;;;16.15;4.92;;;;;;;26.45;42.28;101194.64;1738172;82;21184;-60
2023/09/24 14:12:54;;;;;;;20.92;4.78;;;;;;;26.37;42.17;101197.89;1753593;79;21707;-60
2023/09/24 14:15:55;;;;;;;17.77;4.58;;;;;;;26.32;42.12;101203.47;1768729;80;21195;-59
2023/09/24 14:18:48;;;;;;;15.18;4.78;;;;;;;26.25;42.09;101202.79;1768708;81;21203;-60
2023/09/24 14:21:36;;;;;;;14.38;4.10;;;;;;;26.21;42.07;101217.06;1768065;80;21262;-59
2023/09/24 14:24:30;;;;;;;16.77;4.53;;;;;;;26.14;42.03;101206.55;1767527;80;21183;-61
2023/09/24 14:27:16;;;;;;;18.48;4.05;;;;;;;26.06;41.99;101209.80;1767169;80;21762;-62
2023/09/24 14:30:10;;;;;;;16.02;4.45;;;;;;;25.97;41.97;101214.13;1767357;80;21211;-62
2023/09/24 14:32:58;;;;;;;13.95;3.52;;;;;;;25.89;41.95;101213.16;1767120;81;21171;-59
2023/09/24 14:35:49;;;;;;;;;;;;;;;25.80;41.96;101210.48;1769224;80;21200;-59
2023/09/24 14:38:53;;;;;;;24.07;4.65;;;;;;;25.69;41.94;101203.84;1766138;81;20205;-60
2023/09/24 14:42:00;;;;;;;17.00;4.20;;;;;;;25.62;41.96;101213.53;1782737;78;21339;-59
2023/09/24 14:45:06;;;;;;;20.95;4.53;;;;;;;25.56;41.97;101214.55;1705398;83;21324;-60
2023/09/24 14:48:12;;;;;;;12.30;4.08;;;;;;;25.46;41.93;101211.56;1790454;80;21841;-60
2023/09/24 14:51:25;;;;;;;21.82;3.90;;;;;;;25.35;41.98;101222.30;1710098;83;21228;-59
2023/09/24 14:54:31;;;;;;;;;;;;;;;25.21;42.08;101215.27;1782180;78;21199;-60
2023/09/24 14:57:39;;;;;;;21.55;4.28;;;;;;;25.07;42.17;101219.48;1791953;79;20328;-59
2023/09/24 15:00:50;;;;;;;17.20;4.28;;;;;;;24.92;42.24;101218.09;1792239;80;21371;-58
2023/09/24 15:03:58;;;;;;;20.72;4.05;;;;;;;24.79;42.35;101224.52;1792720;79;21337;-59
2023/09/24 15:07:05;;;;;;;20.55;4.42;;;;;;;24.65;42.51;101222.52;1792353;80;21371;-60
2023/09/24 15:10:12;;;;;;;19.02;4.28;;;;;;;24.52;42.65;101221.39;1791886;80;21731;-59
2023/09/24 15:13:18;;;;;;;16.00;4.00;;;;;;;24.38;42.78;101232.56;1770690;80;21175;-60
2023/09/24 15:16:24;;;;;;;17.80;4.35;;;;;;;24.25;42.85;101238.41;1765382;80;21214;-60
2023/09/24 15:19:30;;;;;;;22.35;4.30;;;;;;;24.12;42.94;101239.22;1791696;80;21329;-60
2023/09/24 15:22:36;;;;;;;15.50;4.45;;;;;;;23.96;43.05;101242.14;1770200;80;21854;-60
2023/09/24 15:25:41;;;;;;;17.77;4.53;;;;;;;23.82;43.25;101239.27;1792250;80;21412;-60
2023/09/24 15:28:48;;;;;;;16.80;4.53;;;;;;;23.67;43.43;101243.10;1791505;80;21875;-60
2023/09/24 15:31:53;;;;;;;22.27;5.15;;;;;;;23.51;43.64;101241.00;1791586;80;21399;-59
2023/09/24 15:34:59;;;;;;;20.35;5.12;;;;;;;23.36;43.82;101240.58;1792223;79;21348;-60
2023/09/24 15:38:08;;;;;;;14.95;4.92;;;;;;;23.19;43.99;101242.31;1791307;80;21718;-59
2023/09/24 15:41:14;;;;;;;15.23;5.08;;;;;;;23.03;44.17;101258.34;1788849;80;21163;-59
2023/09/24 15:44:19;;;;;;;26.70;7.30;;;;;;;22.86;44.41;101261.48;1727537;81;21915;-60
2023/09/24 15:47:24;;;;;;;22.90;7.40;;;;;;;22.71;44.62;101264.66;1679132;85;21262;-60
2023/09/24 15:50:35;;;;;;;27.37;10.28;;;;;;;22.53;44.85;101268.88;1712227;83;21966;-59
2023/09/24 15:53:39;;;;;;;20.48;7.75;;;;;;;22.39;45.11;101270.61;1713351;82;21394;-58
2023/09/24 15:56:46;;;;;;;20.50;6.92;;;;;;;22.22;45.32;101273.13;1740235;82;21330;-60
2023/09/24 15:59:56;;;;;;;24.57;10.08;;;;;;;22.04;45.55;101272.56;1741524;82;21922;-58
2023/09/24 16:03:03;;;;;;;32.33;10.58;;;;;;;21.89;45.81;101274.86;1733438;80;21301;-59
2023/09/24 16:06:11;;;;;;;29.12;11.18;;;;;;;21.75;46.02;101283.02;1724690;81;21216;-59
2023/09/24 16:09:19;;;;;;;32.05;13.35;;;;;;;21.61;46.34;101274.95;1733238;80;21193;-59
2023/09/24 16:12:25;;;;;;;71.22;30.05;;;;;;;21.47;46.60;101278.36;1754999;80;21708;-59
2023/09/24 16:15:34;;;;;;;71.75;33.58;;;;;;;21.32;46.88;101277.84;1715165;82;21398;-59
2023/09/24 16:18:41;;;;;;;78.33;36.77;;;;;;;21.20;47.12;101280.16;1712566;83;21366;-60
2023/09/24 16:21:47;;;;;;;82.72;35.68;;;;;;;21.08;47.38;101285.58;1712431;83;21192;-60
2023/09/24 16:24:53;;;;;;;48.25;18.23;;;;;;;20.98;47.61;101281.58;1717411;81;21339;-61
2023/09/24 16:27:59;;;;;;;45.30;19.27;;;;;;;20.91;47.85;101293.23;1741121;82;21526;-60
2023/09/24 16:31:13;;;;;;;55.70;25.37;;;;;;;20.88;48.13;101290.89;1736652;82;21267;-59
2023/09/24 16:34:19;;;;;;;43.35;18.70;;;;;;;20.82;48.40;101295.39;1737737;82;21196;-60
2023/09/24 16:37:27;;;;;;;28.05;11.90;;;;;;;20.74;48.64;101297.03;1733221;82;21298;-61
2023/09/24 16:40:35;;;;;;;29.87;9.95;;;;;;;20.66;48.82;101307.05;1738025;82;21200;-59
2023/09/24 16:43:41;;;;;;;27.25;11.73;;;;;;;20.60;48.98;101297.63;1743862;80;21379;-60
2023/09/24 16:46:48;;;;;;;33.02;14.07;;;;;;;20.54;49.15;101307.39;1705257;83;21215;-61
2023/09/24 16:49:54;;;;;;;28.75;11.73;;;;;;;20.48;49.34;101315.22;1742293;81;21198;-60